sensor_id;sensor_type;location;lat;lon;timestamp;P1;durP1;ratioP1;P2;durP2;ratioP2
79668;SDS011;69136;52.614;6.976;2023-08-24T00:00:20;3.45;;;1.83;;
79668;SDS011;69136;52.614;6.976;2023-08-24T00:03:04;5.93;;;1.88;;
79668;SDS011;69136;52.614;6.976;2023-08-24T00:05:48;3.30;;;1.88;;
79668;SDS011;69136;52.614;6.976;2023-08-24T00:08:33;1.65;;;1.55;;
79668;SDS011;69136;52.614;6.976;2023-08-24T00:11:17;3.47;;;1.75;;
79668;SDS011;69136;52.614;6.976;2023-08-24T00:14:04;2.83;;;1.63;;
79668;SDS011;69136;52.614;6.976;2023-08-24T00:16:48;3.35;;;1.75;;
79668;SDS011;69136;52.614;6.976;2023-08-24T00:19:32;2.92;;;2.20;;
79668;SDS011;69136;52.614;6.976;2023-08-24T00:22:17;4.50;;;2.20;;
79668;SDS011;69136;52.614;6.976;2023-08-24T00:25:01;3.58;;;2.00;;
79668;SDS011;69136;52.614;6.976;2023-08-24T00:27:46;3.13;;;1.73;;
79668;SDS011;69136;52.614;6.976;2023-08-24T00:30:30;2.25;;;2.03;;
79668;SDS011;69136;52.614;6.976;2023-08-24T00:33:16;3.88;;;2.30;;
79668;SDS011;69136;52.614;6.976;2023-08-24T00:36:01;2.63;;;2.15;;
79668;SDS011;69136;52.614;6.976;2023-08-24T00:38:46;2.17;;;1.85;;
79668;SDS011;69136;52.614;6.976;2023-08-24T00:41:34;2.35;;;1.88;;
79668;SDS011;69136;52.614;6.976;2023-08-24T00:44:19;4.82;;;2.35;;
79668;SDS011;69136;52.614;6.976;2023-08-24T00:47:04;3.97;;;2.35;;
79668;SDS011;69136;52.614;6.976;2023-08-24T00:49:48;2.15;;;1.95;;
79668;SDS011;69136;52.614;6.976;2023-08-24T00:52:33;2.58;;;2.25;;
79668;SDS011;69136;52.614;6.976;2023-08-24T00:55:17;3.03;;;2.15;;
79668;SDS011;69136;52.614;6.976;2023-08-24T00:58:02;4.00;;;2.08;;
79668;SDS011;69136;52.614;6.976;2023-08-24T01:00:48;2.20;;;1.77;;
79668;SDS011;69136;52.614;6.976;2023-08-24T01:03:33;3.53;;;2.22;;
79668;SDS011;69136;52.614;6.976;2023-08-24T01:06:17;2.72;;;1.95;;
79668;SDS011;69136;52.614;6.976;2023-08-24T01:09:02;2.75;;;2.00;;
79668;SDS011;69136;52.614;6.976;2023-08-24T01:11:56;2.70;;;1.92;;
79668;SDS011;69136;52.614;6.976;2023-08-24T01:14:50;2.58;;;1.80;;
79668;SDS011;69136;52.614;6.976;2023-08-24T01:20:39;3.58;;;2.22;;
79668;SDS011;69136;52.614;6.976;2023-08-24T01:26:39;2.72;;;2.15;;
79668;SDS011;69136;52.614;6.976;2023-08-24T01:29:24;4.65;;;1.90;;
79668;SDS011;69136;52.614;6.976;2023-08-24T01:32:10;6.63;;;2.60;;
79668;SDS011;69136;52.614;6.976;2023-08-24T01:34:55;4.20;;;3.40;;
79668;SDS011;69136;52.614;6.976;2023-08-24T01:37:39;4.30;;;3.20;;
79668;SDS011;69136;52.614;6.976;2023-08-24T01:40:26;4.60;;;3.50;;
79668;SDS011;69136;52.614;6.976;2023-08-24T01:43:28;4.38;;;3.30;;
79668;SDS011;69136;52.614;6.976;2023-08-24T01:46:14;4.85;;;3.47;;
79668;SDS011;69136;52.614;6.976;2023-08-24T01:49:00;4.90;;;3.55;;
79668;SDS011;69136;52.614;6.976;2023-08-24T01:51:47;6.47;;;3.53;;
79668;SDS011;69136;52.614;6.976;2023-08-24T01:54:32;4.53;;;3.42;;
79668;SDS011;69136;52.614;6.976;2023-08-24T01:57:17;3.90;;;2.72;;
79668;SDS011;69136;52.614;6.976;2023-08-24T02:00:04;4.55;;;2.88;;
79668;SDS011;69136;52.614;6.976;2023-08-24T02:02:57;7.30;;;3.70;;
79668;SDS011;69136;52.614;6.976;2023-08-24T02:05:42;3.63;;;3.17;;
79668;SDS011;69136;52.614;6.976;2023-08-24T02:08:26;4.75;;;3.80;;
79668;SDS011;69136;52.614;6.976;2023-08-24T02:11:11;3.80;;;2.95;;
79668;SDS011;69136;52.614;6.976;2023-08-24T02:13:55;6.07;;;4.60;;
79668;SDS011;69136;52.614;6.976;2023-08-24T02:16:39;4.07;;;3.40;;
79668;SDS011;69136;52.614;6.976;2023-08-24T02:19:23;6.75;;;4.22;;
79668;SDS011;69136;52.614;6.976;2023-08-24T02:22:07;6.88;;;4.30;;
79668;SDS011;69136;52.614;6.976;2023-08-24T02:24:57;6.93;;;3.78;;
79668;SDS011;69136;52.614;6.976;2023-08-24T02:27:41;4.80;;;3.88;;
79668;SDS011;69136;52.614;6.976;2023-08-24T02:30:25;6.55;;;4.10;;
79668;SDS011;69136;52.614;6.976;2023-08-24T02:33:09;6.03;;;3.50;;
79668;SDS011;69136;52.614;6.976;2023-08-24T02:35:53;5.13;;;3.53;;
79668;SDS011;69136;52.614;6.976;2023-08-24T02:38:38;5.03;;;4.03;;
79668;SDS011;69136;52.614;6.976;2023-08-24T02:41:22;6.00;;;4.28;;
79668;SDS011;69136;52.614;6.976;2023-08-24T02:44:09;6.55;;;3.80;;
79668;SDS011;69136;52.614;6.976;2023-08-24T02:46:55;6.20;;;4.32;;
79668;SDS011;69136;52.614;6.976;2023-08-24T02:49:40;5.03;;;4.00;;
79668;SDS011;69136;52.614;6.976;2023-08-24T02:52:24;5.35;;;3.70;;
79668;SDS011;69136;52.614;6.976;2023-08-24T02:55:08;4.88;;;3.97;;
79668;SDS011;69136;52.614;6.976;2023-08-24T02:57:53;5.88;;;4.13;;
79668;SDS011;69136;52.614;6.976;2023-08-24T03:00:40;8.35;;;4.88;;
79668;SDS011;69136;52.614;6.976;2023-08-24T03:03:25;6.82;;;4.40;;
79668;SDS011;69136;52.614;6.976;2023-08-24T03:06:09;5.65;;;4.40;;
79668;SDS011;69136;52.614;6.976;2023-08-24T03:08:54;5.57;;;4.18;;
79668;SDS011;69136;52.614;6.976;2023-08-24T03:11:40;6.35;;;4.50;;
79668;SDS011;69136;52.614;6.976;2023-08-24T03:14:24;4.97;;;3.88;;
79668;SDS011;69136;52.614;6.976;2023-08-24T03:17:08;6.07;;;3.90;;
79668;SDS011;69136;52.614;6.976;2023-08-24T03:19:52;7.82;;;4.63;;
79668;SDS011;69136;52.614;6.976;2023-08-24T03:22:36;4.68;;;3.88;;
79668;SDS011;69136;52.614;6.976;2023-08-24T03:25:22;7.15;;;4.25;;
79668;SDS011;69136;52.614;6.976;2023-08-24T03:28:07;5.95;;;4.20;;
79668;SDS011;69136;52.614;6.976;2023-08-24T03:30:52;5.25;;;4.15;;
79668;SDS011;69136;52.614;6.976;2023-08-24T03:33:39;4.75;;;3.83;;
79668;SDS011;69136;52.614;6.976;2023-08-24T03:36:23;7.88;;;4.70;;
79668;SDS011;69136;52.614;6.976;2023-08-24T03:39:07;5.50;;;4.20;;
79668;SDS011;69136;52.614;6.976;2023-08-24T03:41:52;5.65;;;4.10;;
79668;SDS011;69136;52.614;6.976;2023-08-24T03:44:37;7.53;;;5.03;;
79668;SDS011;69136;52.614;6.976;2023-08-24T03:47:21;4.57;;;3.83;;
79668;SDS011;69136;52.614;6.976;2023-08-24T03:50:06;5.82;;;4.55;;
79668;SDS011;69136;52.614;6.976;2023-08-24T03:52:53;7.47;;;4.07;;
79668;SDS011;69136;52.614;6.976;2023-08-24T03:55:39;3.78;;;3.38;;
79668;SDS011;69136;52.614;6.976;2023-08-24T03:58:23;5.30;;;3.85;;
79668;SDS011;69136;52.614;6.976;2023-08-24T04:01:10;5.03;;;3.38;;
79668;SDS011;69136;52.614;6.976;2023-08-24T04:03:54;5.07;;;3.70;;
79668;SDS011;69136;52.614;6.976;2023-08-24T04:06:39;4.60;;;3.90;;
79668;SDS011;69136;52.614;6.976;2023-08-24T04:09:23;7.10;;;3.75;;
79668;SDS011;69136;52.614;6.976;2023-08-24T04:12:07;7.28;;;4.25;;
79668;SDS011;69136;52.614;6.976;2023-08-24T04:14:52;6.00;;;4.47;;
79668;SDS011;69136;52.614;6.976;2023-08-24T04:17:37;4.28;;;3.67;;
79668;SDS011;69136;52.614;6.976;2023-08-24T04:20:22;8.05;;;3.38;;
79668;SDS011;69136;52.614;6.976;2023-08-24T04:23:06;6.63;;;3.85;;
79668;SDS011;69136;52.614;6.976;2023-08-24T04:25:50;5.07;;;3.92;;
79668;SDS011;69136;52.614;6.976;2023-08-24T04:28:34;3.92;;;3.42;;
79668;SDS011;69136;52.614;6.976;2023-08-24T04:31:18;5.68;;;4.45;;
79668;SDS011;69136;52.614;6.976;2023-08-24T04:34:02;3.85;;;3.25;;
79668;SDS011;69136;52.614;6.976;2023-08-24T04:36:47;7.55;;;3.67;;
79668;SDS011;69136;52.614;6.976;2023-08-24T04:39:31;4.15;;;3.72;;
79668;SDS011;69136;52.614;6.976;2023-08-24T04:42:15;4.60;;;3.35;;
79668;SDS011;69136;52.614;6.976;2023-08-24T04:45:00;8.55;;;4.72;;
79668;SDS011;69136;52.614;6.976;2023-08-24T04:47:44;6.30;;;3.63;;
79668;SDS011;69136;52.614;6.976;2023-08-24T04:50:29;4.45;;;3.17;;
79668;SDS011;69136;52.614;6.976;2023-08-24T04:53:14;5.63;;;3.53;;
79668;SDS011;69136;52.614;6.976;2023-08-24T04:55:59;4.43;;;3.25;;
79668;SDS011;69136;52.614;6.976;2023-08-24T04:58:53;5.03;;;4.13;;
79668;SDS011;69136;52.614;6.976;2023-08-24T05:01:41;7.40;;;3.67;;
79668;SDS011;69136;52.614;6.976;2023-08-24T05:04:25;5.97;;;3.63;;
79668;SDS011;69136;52.614;6.976;2023-08-24T05:07:14;4.97;;;2.90;;
79668;SDS011;69136;52.614;6.976;2023-08-24T05:10:49;5.95;;;3.75;;
79668;SDS011;69136;52.614;6.976;2023-08-24T05:14:00;4.88;;;3.83;;
79668;SDS011;69136;52.614;6.976;2023-08-24T05:17:07;4.28;;;3.78;;
79668;SDS011;69136;52.614;6.976;2023-08-24T05:20:18;7.40;;;3.83;;
79668;SDS011;69136;52.614;6.976;2023-08-24T05:23:32;5.03;;;3.42;;
79668;SDS011;69136;52.614;6.976;2023-08-24T05:26:49;8.05;;;4.05;;
79668;SDS011;69136;52.614;6.976;2023-08-24T05:29:37;5.72;;;4.65;;
79668;SDS011;69136;52.614;6.976;2023-08-24T05:32:46;6.57;;;3.38;;
79668;SDS011;69136;52.614;6.976;2023-08-24T05:35:47;5.45;;;3.65;;
79668;SDS011;69136;52.614;6.976;2023-08-24T05:38:45;4.75;;;3.35;;
79668;SDS011;69136;52.614;6.976;2023-08-24T05:41:36;6.40;;;4.55;;
79668;SDS011;69136;52.614;6.976;2023-08-24T05:44:29;6.75;;;4.07;;
79668;SDS011;69136;52.614;6.976;2023-08-24T05:47:26;5.18;;;4.13;;
79668;SDS011;69136;52.614;6.976;2023-08-24T05:50:30;6.03;;;4.15;;
79668;SDS011;69136;52.614;6.976;2023-08-24T05:53:16;6.47;;;5.20;;
79668;SDS011;69136;52.614;6.976;2023-08-24T05:56:07;7.45;;;5.53;;
79668;SDS011;69136;52.614;6.976;2023-08-24T05:58:53;9.50;;;6.10;;
79668;SDS011;69136;52.614;6.976;2023-08-24T06:01:45;7.65;;;5.35;;
79668;SDS011;69136;52.614;6.976;2023-08-24T06:04:29;8.88;;;6.18;;
79668;SDS011;69136;52.614;6.976;2023-08-24T06:07:15;7.90;;;5.85;;
79668;SDS011;69136;52.614;6.976;2023-08-24T06:10:00;12.30;;;6.53;;
79668;SDS011;69136;52.614;6.976;2023-08-24T06:12:44;12.13;;;7.00;;
79668;SDS011;69136;52.614;6.976;2023-08-24T06:15:28;11.55;;;7.20;;
79668;SDS011;69136;52.614;6.976;2023-08-24T06:18:12;10.18;;;7.22;;
79668;SDS011;69136;52.614;6.976;2023-08-24T06:20:57;8.18;;;6.80;;
79668;SDS011;69136;52.614;6.976;2023-08-24T06:23:41;11.57;;;8.02;;
79668;SDS011;69136;52.614;6.976;2023-08-24T06:26:25;13.35;;;7.72;;
79668;SDS011;69136;52.614;6.976;2023-08-24T06:29:09;13.45;;;7.88;;
79668;SDS011;69136;52.614;6.976;2023-08-24T06:31:53;13.95;;;8.20;;
79668;SDS011;69136;52.614;6.976;2023-08-24T06:34:37;11.05;;;8.05;;
79668;SDS011;69136;52.614;6.976;2023-08-24T06:37:21;13.75;;;8.07;;
79668;SDS011;69136;52.614;6.976;2023-08-24T06:40:05;11.05;;;7.70;;
79668;SDS011;69136;52.614;6.976;2023-08-24T06:42:51;13.07;;;8.25;;
79668;SDS011;69136;52.614;6.976;2023-08-24T06:45:34;11.88;;;7.50;;
79668;SDS011;69136;52.614;6.976;2023-08-24T06:48:18;13.02;;;8.70;;
79668;SDS011;69136;52.614;6.976;2023-08-24T06:51:03;10.05;;;7.60;;
79668;SDS011;69136;52.614;6.976;2023-08-24T06:53:47;13.18;;;7.75;;
79668;SDS011;69136;52.614;6.976;2023-08-24T06:56:32;10.95;;;7.72;;
79668;SDS011;69136;52.614;6.976;2023-08-24T06:59:16;11.57;;;8.07;;
79668;SDS011;69136;52.614;6.976;2023-08-24T07:02:00;14.40;;;8.85;;
79668;SDS011;69136;52.614;6.976;2023-08-24T07:04:44;12.45;;;8.45;;
79668;SDS011;69136;52.614;6.976;2023-08-24T07:07:28;11.73;;;8.23;;
79668;SDS011;69136;52.614;6.976;2023-08-24T07:10:12;10.02;;;7.97;;
79668;SDS011;69136;52.614;6.976;2023-08-24T07:12:57;15.52;;;8.52;;
79668;SDS011;69136;52.614;6.976;2023-08-24T07:15:41;11.90;;;8.05;;
79668;SDS011;69136;52.614;6.976;2023-08-24T07:18:26;12.57;;;8.77;;
79668;SDS011;69136;52.614;6.976;2023-08-24T07:21:10;13.40;;;8.43;;
79668;SDS011;69136;52.614;6.976;2023-08-24T07:23:54;15.80;;;9.63;;
79668;SDS011;69136;52.614;6.976;2023-08-24T07:26:39;13.73;;;8.43;;
79668;SDS011;69136;52.614;6.976;2023-08-24T07:29:24;12.38;;;9.18;;
79668;SDS011;69136;52.614;6.976;2023-08-24T07:32:08;12.57;;;8.80;;
79668;SDS011;69136;52.614;6.976;2023-08-24T07:34:52;12.38;;;8.65;;
79668;SDS011;69136;52.614;6.976;2023-08-24T07:37:36;11.88;;;8.15;;
79668;SDS011;69136;52.614;6.976;2023-08-24T07:40:20;12.73;;;8.55;;
79668;SDS011;69136;52.614;6.976;2023-08-24T07:43:04;13.55;;;8.43;;
79668;SDS011;69136;52.614;6.976;2023-08-24T07:45:49;11.98;;;8.68;;
79668;SDS011;69136;52.614;6.976;2023-08-24T07:48:33;16.25;;;9.57;;
79668;SDS011;69136;52.614;6.976;2023-08-24T07:51:17;11.50;;;9.23;;
79668;SDS011;69136;52.614;6.976;2023-08-24T07:54:01;13.50;;;9.38;;
79668;SDS011;69136;52.614;6.976;2023-08-24T07:56:48;11.50;;;8.95;;
79668;SDS011;69136;52.614;6.976;2023-08-24T07:59:31;12.15;;;9.10;;
79668;SDS011;69136;52.614;6.976;2023-08-24T08:02:15;13.45;;;8.73;;
79668;SDS011;69136;52.614;6.976;2023-08-24T08:04:59;16.52;;;9.30;;
79668;SDS011;69136;52.614;6.976;2023-08-24T08:07:43;14.30;;;9.75;;
79668;SDS011;69136;52.614;6.976;2023-08-24T08:10:27;14.30;;;9.43;;
79668;SDS011;69136;52.614;6.976;2023-08-24T08:13:11;12.70;;;8.05;;
79668;SDS011;69136;52.614;6.976;2023-08-24T08:16:02;11.05;;;8.32;;
79668;SDS011;69136;52.614;6.976;2023-08-24T08:18:47;15.48;;;8.70;;
79668;SDS011;69136;52.614;6.976;2023-08-24T08:21:31;13.07;;;8.48;;
79668;SDS011;69136;52.614;6.976;2023-08-24T08:24:15;10.57;;;8.18;;
79668;SDS011;69136;52.614;6.976;2023-08-24T08:26:59;12.55;;;8.95;;
79668;SDS011;69136;52.614;6.976;2023-08-24T08:29:43;13.32;;;7.78;;
79668;SDS011;69136;52.614;6.976;2023-08-24T08:32:27;12.60;;;8.48;;
79668;SDS011;69136;52.614;6.976;2023-08-24T08:35:11;11.77;;;8.57;;
79668;SDS011;69136;52.614;6.976;2023-08-24T08:37:55;17.08;;;8.43;;
79668;SDS011;69136;52.614;6.976;2023-08-24T08:40:39;13.10;;;7.65;;
79668;SDS011;69136;52.614;6.976;2023-08-24T08:43:25;9.13;;;7.57;;
79668;SDS011;69136;52.614;6.976;2023-08-24T08:46:08;11.48;;;7.88;;
79668;SDS011;69136;52.614;6.976;2023-08-24T08:48:53;10.35;;;7.63;;
79668;SDS011;69136;52.614;6.976;2023-08-24T08:51:38;12.52;;;7.68;;
79668;SDS011;69136;52.614;6.976;2023-08-24T08:54:22;12.02;;;7.75;;
79668;SDS011;69136;52.614;6.976;2023-08-24T08:57:06;11.25;;;7.18;;
79668;SDS011;69136;52.614;6.976;2023-08-24T08:59:53;9.65;;;5.65;;
79668;SDS011;69136;52.614;6.976;2023-08-24T09:02:38;9.23;;;6.20;;
79668;SDS011;69136;52.614;6.976;2023-08-24T09:05:22;9.27;;;6.53;;
79668;SDS011;69136;52.614;6.976;2023-08-24T09:08:09;10.50;;;5.70;;
79668;SDS011;69136;52.614;6.976;2023-08-24T09:10:54;7.78;;;6.50;;
79668;SDS011;69136;52.614;6.976;2023-08-24T09:13:38;11.93;;;6.63;;
79668;SDS011;69136;52.614;6.976;2023-08-24T09:16:22;8.73;;;5.50;;
79668;SDS011;69136;52.614;6.976;2023-08-24T09:19:06;8.82;;;6.22;;
79668;SDS011;69136;52.614;6.976;2023-08-24T09:21:54;9.52;;;6.35;;
79668;SDS011;69136;52.614;6.976;2023-08-24T09:24:40;10.05;;;6.95;;
79668;SDS011;69136;52.614;6.976;2023-08-24T09:27:24;8.43;;;5.95;;
79668;SDS011;69136;52.614;6.976;2023-08-24T09:30:08;9.10;;;6.68;;
79668;SDS011;69136;52.614;6.976;2023-08-24T09:32:52;11.10;;;6.63;;
79668;SDS011;69136;52.614;6.976;2023-08-24T09:35:36;8.68;;;7.05;;
79668;SDS011;69136;52.614;6.976;2023-08-24T09:38:21;11.10;;;6.85;;
79668;SDS011;69136;52.614;6.976;2023-08-24T09:41:06;10.02;;;6.15;;
79668;SDS011;69136;52.614;6.976;2023-08-24T09:43:52;9.32;;;6.22;;
79668;SDS011;69136;52.614;6.976;2023-08-24T09:46:36;13.73;;;6.18;;
79668;SDS011;69136;52.614;6.976;2023-08-24T09:49:21;9.13;;;6.80;;
79668;SDS011;69136;52.614;6.976;2023-08-24T09:52:06;10.13;;;7.20;;
79668;SDS011;69136;52.614;6.976;2023-08-24T09:54:51;8.35;;;6.45;;
79668;SDS011;69136;52.614;6.976;2023-08-24T09:57:36;10.43;;;6.60;;
79668;SDS011;69136;52.614;6.976;2023-08-24T10:00:21;9.00;;;5.50;;
79668;SDS011;69136;52.614;6.976;2023-08-24T10:03:08;9.20;;;6.03;;
79668;SDS011;69136;52.614;6.976;2023-08-24T10:05:54;8.57;;;5.80;;
79668;SDS011;69136;52.614;6.976;2023-08-24T10:08:47;7.97;;;5.25;;
79668;SDS011;69136;52.614;6.976;2023-08-24T10:11:33;9.07;;;6.00;;
79668;SDS011;69136;52.614;6.976;2023-08-24T10:14:21;11.10;;;5.68;;
79668;SDS011;69136;52.614;6.976;2023-08-24T10:17:10;9.40;;;6.22;;
79668;SDS011;69136;52.614;6.976;2023-08-24T10:19:55;7.97;;;5.68;;
79668;SDS011;69136;52.614;6.976;2023-08-24T10:22:42;7.63;;;5.53;;
79668;SDS011;69136;52.614;6.976;2023-08-24T10:25:27;7.93;;;5.32;;
79668;SDS011;69136;52.614;6.976;2023-08-24T10:28:11;8.52;;;5.40;;
79668;SDS011;69136;52.614;6.976;2023-08-24T10:30:58;9.50;;;5.13;;
79668;SDS011;69136;52.614;6.976;2023-08-24T10:33:44;6.65;;;5.03;;
79668;SDS011;69136;52.614;6.976;2023-08-24T10:36:29;7.93;;;5.00;;
79668;SDS011;69136;52.614;6.976;2023-08-24T10:39:13;7.15;;;5.30;;
79668;SDS011;69136;52.614;6.976;2023-08-24T10:41:58;6.25;;;5.05;;
79668;SDS011;69136;52.614;6.976;2023-08-24T10:44:45;7.93;;;5.18;;
79668;SDS011;69136;52.614;6.976;2023-08-24T10:47:33;6.60;;;5.03;;
79668;SDS011;69136;52.614;6.976;2023-08-24T10:50:28;7.28;;;4.85;;
79668;SDS011;69136;52.614;6.976;2023-08-24T10:53:13;6.38;;;4.43;;
79668;SDS011;69136;52.614;6.976;2023-08-24T10:56:29;6.03;;;4.70;;
79668;SDS011;69136;52.614;6.976;2023-08-24T10:59:19;8.43;;;4.82;;
79668;SDS011;69136;52.614;6.976;2023-08-24T11:02:03;7.68;;;4.63;;
79668;SDS011;69136;52.614;6.976;2023-08-24T11:05:03;7.07;;;4.47;;
79668;SDS011;69136;52.614;6.976;2023-08-24T11:07:57;6.90;;;4.85;;
79668;SDS011;69136;52.614;6.976;2023-08-24T11:13:27;8.02;;;4.88;;
79668;SDS011;69136;52.614;6.976;2023-08-24T11:16:16;8.48;;;5.65;;
79668;SDS011;69136;52.614;6.976;2023-08-24T11:19:22;7.22;;;5.50;;
79668;SDS011;69136;52.614;6.976;2023-08-24T11:22:06;9.50;;;4.85;;
79668;SDS011;69136;52.614;6.976;2023-08-24T11:24:51;7.10;;;5.50;;
79668;SDS011;69136;52.614;6.976;2023-08-24T11:27:35;9.93;;;5.18;;
79668;SDS011;69136;52.614;6.976;2023-08-24T11:30:19;7.50;;;4.70;;
79668;SDS011;69136;52.614;6.976;2023-08-24T11:33:06;13.40;;;5.20;;
79668;SDS011;69136;52.614;6.976;2023-08-24T11:35:52;6.75;;;4.30;;
79668;SDS011;69136;52.614;6.976;2023-08-24T11:38:37;5.13;;;4.22;;
79668;SDS011;69136;52.614;6.976;2023-08-24T11:41:22;6.60;;;4.68;;
79668;SDS011;69136;52.614;6.976;2023-08-24T11:44:06;5.78;;;3.60;;
79668;SDS011;69136;52.614;6.976;2023-08-24T11:46:51;6.50;;;4.03;;
79668;SDS011;69136;52.614;6.976;2023-08-24T11:49:35;7.70;;;5.13;;
79668;SDS011;69136;52.614;6.976;2023-08-24T11:52:20;7.68;;;4.53;;
79668;SDS011;69136;52.614;6.976;2023-08-24T11:55:04;8.02;;;5.07;;
79668;SDS011;69136;52.614;6.976;2023-08-24T11:57:51;5.13;;;3.60;;
79668;SDS011;69136;52.614;6.976;2023-08-24T12:00:35;6.47;;;4.13;;
79668;SDS011;69136;52.614;6.976;2023-08-24T12:03:20;8.30;;;4.90;;
79668;SDS011;69136;52.614;6.976;2023-08-24T12:06:09;7.50;;;5.28;;
79668;SDS011;69136;52.614;6.976;2023-08-24T12:08:58;5.70;;;4.50;;
79668;SDS011;69136;52.614;6.976;2023-08-24T12:11:42;7.55;;;4.70;;
79668;SDS011;69136;52.614;6.976;2023-08-24T12:14:26;10.75;;;5.90;;
79668;SDS011;69136;52.614;6.976;2023-08-24T12:17:10;10.00;;;5.63;;
79668;SDS011;69136;52.614;6.976;2023-08-24T12:19:59;7.13;;;4.80;;
79668;SDS011;69136;52.614;6.976;2023-08-24T12:22:44;6.82;;;3.45;;
79668;SDS011;69136;52.614;6.976;2023-08-24T12:25:28;7.20;;;3.88;;
79668;SDS011;69136;52.614;6.976;2023-08-24T12:28:13;7.22;;;4.82;;
79668;SDS011;69136;52.614;6.976;2023-08-24T12:30:59;6.50;;;5.10;;
79668;SDS011;69136;52.614;6.976;2023-08-24T12:33:58;8.65;;;5.30;;
79668;SDS011;69136;52.614;6.976;2023-08-24T12:36:44;9.85;;;6.03;;
79668;SDS011;69136;52.614;6.976;2023-08-24T12:39:32;6.22;;;4.90;;
79668;SDS011;69136;52.614;6.976;2023-08-24T12:42:19;7.20;;;5.05;;
79668;SDS011;69136;52.614;6.976;2023-08-24T12:45:04;7.43;;;5.18;;
79668;SDS011;69136;52.614;6.976;2023-08-24T12:47:49;8.43;;;5.50;;
79668;SDS011;69136;52.614;6.976;2023-08-24T12:50:37;6.80;;;4.88;;
79668;SDS011;69136;52.614;6.976;2023-08-24T12:53:22;5.93;;;4.63;;
79668;SDS011;69136;52.614;6.976;2023-08-24T12:56:06;6.82;;;4.78;;
79668;SDS011;69136;52.614;6.976;2023-08-24T12:58:51;9.60;;;4.38;;
79668;SDS011;69136;52.614;6.976;2023-08-24T13:01:35;6.50;;;4.85;;
79668;SDS011;69136;52.614;6.976;2023-08-24T13:04:19;7.25;;;4.72;;
79668;SDS011;69136;52.614;6.976;2023-08-24T13:07:03;7.82;;;4.90;;
79668;SDS011;69136;52.614;6.976;2023-08-24T13:09:48;6.53;;;4.97;;
79668;SDS011;69136;52.614;6.976;2023-08-24T13:12:32;5.35;;;4.40;;
79668;SDS011;69136;52.614;6.976;2023-08-24T13:15:16;5.13;;;3.90;;
79668;SDS011;69136;52.614;6.976;2023-08-24T13:18:00;6.97;;;5.03;;
79668;SDS011;69136;52.614;6.976;2023-08-24T13:20:44;11.25;;;4.32;;
79668;SDS011;69136;52.614;6.976;2023-08-24T13:23:29;5.53;;;3.92;;
79668;SDS011;69136;52.614;6.976;2023-08-24T13:26:17;5.43;;;4.22;;
79668;SDS011;69136;52.614;6.976;2023-08-24T13:29:04;5.53;;;4.32;;
79668;SDS011;69136;52.614;6.976;2023-08-24T13:31:49;6.15;;;3.70;;
79668;SDS011;69136;52.614;6.976;2023-08-24T13:34:33;4.47;;;4.05;;
79668;SDS011;69136;52.614;6.976;2023-08-24T13:37:18;8.02;;;5.03;;
79668;SDS011;69136;52.614;6.976;2023-08-24T13:40:02;5.35;;;4.32;;
79668;SDS011;69136;52.614;6.976;2023-08-24T13:42:47;4.47;;;3.67;;
79668;SDS011;69136;52.614;6.976;2023-08-24T13:45:32;7.05;;;4.10;;
79668;SDS011;69136;52.614;6.976;2023-08-24T13:48:18;6.90;;;4.22;;
79668;SDS011;69136;52.614;6.976;2023-08-24T13:51:02;7.07;;;3.97;;
79668;SDS011;69136;52.614;6.976;2023-08-24T13:53:47;5.32;;;4.05;;
79668;SDS011;69136;52.614;6.976;2023-08-24T13:56:31;5.95;;;4.25;;
79668;SDS011;69136;52.614;6.976;2023-08-24T13:59:15;4.80;;;3.42;;
79668;SDS011;69136;52.614;6.976;2023-08-24T14:02:00;5.75;;;3.78;;
79668;SDS011;69136;52.614;6.976;2023-08-24T14:04:44;8.15;;;3.90;;
79668;SDS011;69136;52.614;6.976;2023-08-24T14:07:28;5.85;;;3.70;;
79668;SDS011;69136;52.614;6.976;2023-08-24T14:10:13;6.25;;;3.60;;
79668;SDS011;69136;52.614;6.976;2023-08-24T14:12:57;3.92;;;3.30;;
79668;SDS011;69136;52.614;6.976;2023-08-24T14:15:41;5.03;;;3.45;;
79668;SDS011;69136;52.614;6.976;2023-08-24T14:18:25;6.68;;;3.33;;
79668;SDS011;69136;52.614;6.976;2023-08-24T14:21:11;5.82;;;3.25;;
79668;SDS011;69136;52.614;6.976;2023-08-24T14:23:55;5.13;;;3.88;;
79668;SDS011;69136;52.614;6.976;2023-08-24T14:26:40;5.10;;;3.20;;
79668;SDS011;69136;52.614;6.976;2023-08-24T14:29:29;4.70;;;3.90;;
79668;SDS011;69136;52.614;6.976;2023-08-24T14:32:13;6.18;;;3.85;;
79668;SDS011;69136;52.614;6.976;2023-08-24T14:34:58;4.38;;;3.40;;
79668;SDS011;69136;52.614;6.976;2023-08-24T14:37:42;7.80;;;3.60;;
79668;SDS011;69136;52.614;6.976;2023-08-24T14:40:26;6.57;;;4.03;;
79668;SDS011;69136;52.614;6.976;2023-08-24T14:43:11;6.45;;;3.25;;
79668;SDS011;69136;52.614;6.976;2023-08-24T14:45:55;4.00;;;3.58;;
79668;SDS011;69136;52.614;6.976;2023-08-24T14:48:39;6.15;;;3.65;;
79668;SDS011;69136;52.614;6.976;2023-08-24T14:51:23;5.90;;;3.70;;
79668;SDS011;69136;52.614;6.976;2023-08-24T14:54:07;5.88;;;3.67;;
79668;SDS011;69136;52.614;6.976;2023-08-24T14:56:51;6.72;;;3.50;;
79668;SDS011;69136;52.614;6.976;2023-08-24T14:59:35;7.97;;;4.45;;
79668;SDS011;69136;52.614;6.976;2023-08-24T15:02:19;5.10;;;3.50;;
79668;SDS011;69136;52.614;6.976;2023-08-24T15:05:03;6.20;;;3.53;;
79668;SDS011;69136;52.614;6.976;2023-08-24T15:07:48;5.90;;;3.30;;
79668;SDS011;69136;52.614;6.976;2023-08-24T15:10:33;4.57;;;3.97;;
79668;SDS011;69136;52.614;6.976;2023-08-24T15:13:17;5.43;;;3.78;;
79668;SDS011;69136;52.614;6.976;2023-08-24T15:16:01;5.63;;;3.28;;
79668;SDS011;69136;52.614;6.976;2023-08-24T15:18:45;5.50;;;3.60;;
79668;SDS011;69136;52.614;6.976;2023-08-24T15:21:29;5.22;;;3.47;;
79668;SDS011;69136;52.614;6.976;2023-08-24T15:24:13;4.75;;;3.28;;
79668;SDS011;69136;52.614;6.976;2023-08-24T15:26:58;4.68;;;3.03;;
79668;SDS011;69136;52.614;6.976;2023-08-24T15:29:41;6.07;;;3.38;;
79668;SDS011;69136;52.614;6.976;2023-08-24T15:32:25;3.38;;;2.55;;
79668;SDS011;69136;52.614;6.976;2023-08-24T15:35:10;3.92;;;3.05;;
79668;SDS011;69136;52.614;6.976;2023-08-24T15:37:54;4.57;;;3.47;;
79668;SDS011;69136;52.614;6.976;2023-08-24T15:40:38;4.85;;;3.53;;
79668;SDS011;69136;52.614;6.976;2023-08-24T15:43:23;6.60;;;3.95;;
79668;SDS011;69136;52.614;6.976;2023-08-24T15:46:07;7.30;;;4.03;;
79668;SDS011;69136;52.614;6.976;2023-08-24T15:48:51;6.95;;;4.03;;
79668;SDS011;69136;52.614;6.976;2023-08-24T15:51:37;6.85;;;4.18;;
79668;SDS011;69136;52.614;6.976;2023-08-24T15:54:21;5.25;;;3.90;;
79668;SDS011;69136;52.614;6.976;2023-08-24T15:57:06;8.30;;;4.47;;
79668;SDS011;69136;52.614;6.976;2023-08-24T15:59:50;5.20;;;3.55;;
79668;SDS011;69136;52.614;6.976;2023-08-24T16:02:34;8.00;;;5.07;;
79668;SDS011;69136;52.614;6.976;2023-08-24T16:05:18;6.15;;;5.03;;
79668;SDS011;69136;52.614;6.976;2023-08-24T16:08:02;7.07;;;4.35;;
79668;SDS011;69136;52.614;6.976;2023-08-24T16:10:47;6.97;;;4.60;;
79668;SDS011;69136;52.614;6.976;2023-08-24T16:13:31;7.05;;;4.35;;
79668;SDS011;69136;52.614;6.976;2023-08-24T16:16:15;6.05;;;4.18;;
79668;SDS011;69136;52.614;6.976;2023-08-24T16:18:59;5.55;;;3.85;;
79668;SDS011;69136;52.614;6.976;2023-08-24T16:21:43;7.13;;;5.25;;
79668;SDS011;69136;52.614;6.976;2023-08-24T16:24:27;5.70;;;4.03;;
79668;SDS011;69136;52.614;6.976;2023-08-24T16:27:11;8.20;;;4.57;;
79668;SDS011;69136;52.614;6.976;2023-08-24T16:29:55;5.63;;;4.45;;
79668;SDS011;69136;52.614;6.976;2023-08-24T16:32:39;9.50;;;5.22;;
79668;SDS011;69136;52.614;6.976;2023-08-24T16:35:24;6.28;;;4.50;;
79668;SDS011;69136;52.614;6.976;2023-08-24T16:38:08;6.47;;;5.00;;
79668;SDS011;69136;52.614;6.976;2023-08-24T16:40:52;7.35;;;4.43;;
79668;SDS011;69136;52.614;6.976;2023-08-24T16:43:36;6.43;;;4.65;;
79668;SDS011;69136;52.614;6.976;2023-08-24T16:46:20;8.23;;;4.88;;